createdAt,value
2023-05-17T00:00:03.224Z,9.76
2023-05-17T00:02:53.340Z,9.75
2023-05-17T00:05:21.789Z,9.73
2023-05-17T00:07:50.470Z,9.71
2023-05-17T00:10:18.852Z,9.70
2023-05-17T00:12:47.130Z,9.69
2023-05-17T00:15:15.399Z,9.68
2023-05-17T00:17:43.766Z,9.66
2023-05-17T00:20:12.771Z,9.67
2023-05-17T00:22:41.244Z,9.66
2023-05-17T00:25:09.631Z,9.66
2023-05-17T00:27:37.798Z,9.64
2023-05-17T00:30:07.761Z,9.63
2023-05-17T00:32:38.516Z,9.62
2023-05-17T00:35:07.321Z,9.60
2023-05-17T00:37:35.955Z,9.58
2023-05-17T00:40:06.449Z,9.56
2023-05-17T00:42:34.716Z,9.54
2023-05-17T00:45:03.093Z,9.54
2023-05-17T00:47:31.534Z,9.53
2023-05-17T00:49:59.853Z,9.52
2023-05-17T00:52:28.222Z,9.51
2023-05-17T00:54:56.603Z,9.52
2023-05-17T00:57:24.979Z,9.51
2023-05-17T00:59:53.970Z,9.48
2023-05-17T01:02:22.759Z,9.47
2023-05-17T01:04:51.391Z,9.44
2023-05-17T01:07:19.817Z,9.41
2023-05-17T01:09:48.818Z,9.40
2023-05-17T01:12:42.374Z,9.37
2023-05-17T01:15:37.998Z,9.33
2023-05-17T01:18:18.570Z,9.30
2023-05-17T01:20:49.486Z,9.27
2023-05-17T01:23:36.402Z,9.24
2023-05-17T01:26:19.321Z,9.20
2023-05-17T01:28:50.220Z,9.17
2023-05-17T01:31:19.147Z,9.12
2023-05-17T01:33:48.026Z,9.09
2023-05-17T01:36:16.408Z,9.07
2023-05-17T01:38:44.697Z,9.05
2023-05-17T01:41:38.067Z,9.03
2023-05-17T01:44:06.318Z,8.99
2023-05-17T01:46:57.351Z,8.98
2023-05-17T01:49:30.811Z,8.94
2023-05-17T01:52:32.176Z,8.91
2023-05-17T01:55:15.097Z,8.88
2023-05-17T01:57:44.803Z,8.85
2023-05-17T02:00:13.998Z,8.82
2023-05-17T02:02:47.522Z,8.78
2023-05-17T02:05:15.911Z,8.77
2023-05-17T02:07:44.250Z,8.73
2023-05-17T02:10:13.154Z,8.69
2023-05-17T02:12:44.189Z,8.67
2023-05-17T02:15:16.786Z,8.64
2023-05-17T02:17:45.228Z,8.61
2023-05-17T02:20:14.025Z,8.59
2023-05-17T02:22:42.297Z,8.57
2023-05-17T02:25:10.679Z,8.55
2023-05-17T02:27:41.148Z,8.52
2023-05-17T02:30:10.401Z,8.48
2023-05-17T02:32:39.278Z,8.44
2023-05-17T02:35:09.444Z,8.40
2023-05-17T02:37:37.688Z,8.37
2023-05-17T02:40:10.053Z,8.34
2023-05-17T02:42:38.553Z,8.30
2023-05-17T02:45:07.664Z,8.24
2023-05-17T02:47:35.997Z,8.20
2023-05-17T02:50:05.211Z,8.16
2023-05-17T02:52:34.090Z,8.10
2023-05-17T02:55:02.769Z,8.08
2023-05-17T02:57:31.052Z,8.04
2023-05-17T02:59:59.419Z,8.00
2023-05-17T03:02:29.125Z,7.96
2023-05-17T03:04:57.761Z,7.91
2023-05-17T03:07:26.188Z,7.88
2023-05-17T03:09:55.285Z,7.84
2023-05-17T03:12:24.684Z,7.81
2023-05-17T03:26:28.973Z,8.00
2023-05-17T03:28:57.346Z,7.99
2023-05-17T03:31:26.234Z,7.96
2023-05-17T03:33:54.852Z,7.92
2023-05-17T03:36:23.807Z,7.85
2023-05-17T03:38:52.298Z,7.77
2023-05-17T03:41:21.279Z,7.72
2023-05-17T03:43:49.963Z,7.64
2023-05-17T03:46:18.651Z,7.57
2023-05-17T03:48:48.716Z,7.53
2023-05-17T03:51:18.369Z,7.51
2023-05-17T03:53:46.647Z,7.49
2023-05-17T03:56:16.149Z,7.47
2023-05-17T03:58:44.533Z,7.45
2023-05-17T04:01:12.908Z,7.44
2023-05-17T04:03:41.289Z,7.45
2023-05-17T04:06:10.479Z,7.45
2023-05-17T04:08:39.789Z,7.46
2023-05-17T04:11:13.203Z,7.47
2023-05-17T04:13:43.015Z,7.49
2023-05-17T04:16:11.462Z,7.52
2023-05-17T04:18:42.182Z,7.54
2023-05-17T04:21:11.091Z,7.55
2023-05-17T04:23:40.587Z,7.57
2023-05-17T04:26:10.757Z,7.58
2023-05-17T04:28:41.440Z,7.59
2023-05-17T04:31:10.840Z,7.62
2023-05-17T04:33:39.537Z,7.66
2023-05-17T04:36:08.824Z,7.70
2023-05-17T04:38:37.405Z,7.73
2023-05-17T04:41:07.626Z,7.74
2023-05-17T04:43:38.508Z,7.76
2023-05-17T04:46:10.025Z,7.79
2023-05-17T04:48:39.488Z,7.80
2023-05-17T04:51:08.312Z,7.81
2023-05-17T04:53:36.782Z,7.84
2023-05-17T04:56:09.374Z,7.88
2023-05-17T04:58:37.938Z,7.89
2023-05-17T05:01:06.676Z,7.90
2023-05-17T05:03:35.219Z,7.92
2023-05-17T05:06:04.714Z,7.98
2023-05-17T05:08:33.900Z,8.01
2023-05-17T05:11:02.393Z,8.04
2023-05-17T05:13:32.215Z,8.07
2023-05-17T05:16:00.797Z,8.12
2023-05-17T05:18:30.234Z,8.19
2023-05-17T05:20:59.682Z,8.25
2023-05-17T05:23:28.468Z,8.32
2023-05-17T05:25:56.896Z,8.38
2023-05-17T05:28:25.525Z,8.46
2023-05-17T05:30:59.429Z,8.53
2023-05-17T05:33:28.934Z,8.57
2023-05-17T05:35:57.973Z,8.62
2023-05-17T05:38:29.073Z,8.65
2023-05-17T05:40:57.551Z,8.68
2023-05-17T05:43:25.822Z,8.72
2023-05-17T05:45:54.204Z,8.76
2023-05-17T05:48:22.963Z,8.82
2023-05-17T05:50:51.366Z,8.89
2023-05-17T05:53:20.031Z,8.95
2023-05-17T05:55:56.518Z,9.02
2023-05-17T05:58:25.249Z,9.06
2023-05-17T06:00:53.782Z,9.09
2023-05-17T06:03:22.014Z,9.15
2023-05-17T06:05:50.904Z,9.21
2023-05-17T06:08:19.428Z,9.29
2023-05-17T06:10:48.217Z,9.39
2023-05-17T06:13:16.450Z,9.49
2023-05-17T06:15:44.920Z,9.61
2023-05-17T06:18:13.523Z,9.71
2023-05-17T06:20:42.545Z,9.85
2023-05-17T06:23:11.024Z,9.94
2023-05-17T06:25:40.425Z,10.04
2023-05-17T06:28:09.522Z,10.17
2023-05-17T06:30:38.000Z,10.22
2023-05-17T06:33:06.412Z,10.28
2023-05-17T06:35:51.756Z,10.32
2023-05-17T06:38:24.223Z,10.34
2023-05-17T06:40:56.177Z,10.39
2023-05-17T06:43:24.570Z,10.43
2023-05-17T06:45:53.181Z,10.48
2023-05-17T06:48:21.534Z,10.56
2023-05-17T06:50:50.209Z,10.66
2023-05-17T06:53:18.474Z,10.78
2023-05-17T06:55:46.749Z,10.84
2023-05-17T06:58:15.227Z,10.91
2023-05-17T07:00:43.424Z,10.86
2023-05-17T07:03:11.973Z,10.89
2023-05-17T07:05:40.990Z,10.93
2023-05-17T07:08:09.348Z,11.02
2023-05-17T07:10:37.538Z,11.08
2023-05-17T07:13:05.906Z,11.15
2023-05-17T07:15:34.408Z,11.23
2023-05-17T07:18:03.389Z,11.26
2023-05-17T07:20:32.160Z,11.22
2023-05-17T07:23:01.302Z,11.25
2023-05-17T07:25:30.151Z,11.29
2023-05-17T07:27:58.624Z,11.32
2023-05-17T07:30:27.056Z,11.36
2023-05-17T07:32:55.433Z,11.42
2023-05-17T07:35:24.169Z,11.44
2023-05-17T07:37:52.662Z,11.46
2023-05-17T07:40:22.262Z,11.49
2023-05-17T07:42:50.929Z,11.56
2023-05-17T07:45:19.622Z,11.64
2023-05-17T07:47:48.368Z,11.70
2023-05-17T07:50:16.990Z,11.79
2023-05-17T07:52:45.267Z,11.87
2023-05-17T07:55:16.037Z,11.90
2023-05-17T07:57:45.606Z,11.95
2023-05-17T08:00:14.655Z,12.07
2023-05-17T08:02:43.125Z,12.17
2023-05-17T08:05:11.760Z,12.20
2023-05-17T08:07:40.034Z,12.11
2023-05-17T08:10:09.038Z,12.14
2023-05-17T08:12:37.299Z,12.23
2023-05-17T08:15:06.724Z,12.23
2023-05-17T08:17:35.053Z,12.20
2023-05-17T08:20:03.363Z,12.28
2023-05-17T08:22:31.728Z,12.42
2023-05-17T08:25:00.004Z,12.43
2023-05-17T08:27:31.346Z,12.45
2023-05-17T08:30:00.149Z,12.53
2023-05-17T08:32:28.650Z,12.59
2023-05-17T08:34:58.336Z,12.63
2023-05-17T08:37:26.602Z,12.65
2023-05-17T08:39:54.993Z,12.71
2023-05-17T08:42:26.834Z,12.76
2023-05-17T08:44:55.625Z,12.83
2023-05-17T08:47:30.020Z,12.89
2023-05-17T08:50:05.185Z,12.93
2023-05-17T08:52:36.305Z,12.90
2023-05-17T08:55:06.306Z,12.92
2023-05-17T08:57:38.703Z,12.91
2023-05-17T09:00:17.011Z,12.97
2023-05-17T09:02:45.367Z,12.99
2023-05-17T09:05:16.751Z,13.04
2023-05-17T09:07:45.211Z,13.09
2023-05-17T09:10:13.897Z,13.14
2023-05-17T09:12:42.584Z,13.22
2023-05-17T09:15:21.074Z,13.23
2023-05-17T09:17:57.760Z,13.20
2023-05-17T09:20:35.535Z,13.21
2023-05-17T09:23:05.371Z,13.23
2023-05-17T09:25:34.163Z,13.24
2023-05-17T09:28:07.906Z,13.26
2023-05-17T09:30:40.236Z,13.31
2023-05-17T09:33:09.793Z,13.32
2023-05-17T09:35:39.088Z,13.33
2023-05-17T09:38:09.341Z,13.37
2023-05-17T09:40:44.149Z,13.48
2023-05-17T09:43:13.595Z,13.54
2023-05-17T09:45:42.069Z,13.57
2023-05-17T09:48:15.263Z,13.59
2023-05-17T09:50:48.665Z,13.58
2023-05-17T09:53:27.473Z,13.54
2023-05-17T09:55:58.852Z,13.39
2023-05-17T09:58:29.274Z,13.27
2023-05-17T10:01:02.096Z,13.18
2023-05-17T10:03:33.586Z,13.12
2023-05-17T10:06:06.598Z,13.08
2023-05-17T10:08:35.454Z,13.08
2023-05-17T10:11:08.345Z,13.11
2023-05-17T10:13:44.913Z,13.19
2023-05-17T10:16:13.616Z,13.22
2023-05-17T10:18:42.321Z,13.18
2023-05-17T10:21:11.063Z,13.15
2023-05-17T10:23:40.066Z,13.13
2023-05-17T10:26:08.943Z,13.09
2023-05-17T10:28:37.736Z,13.06
2023-05-17T10:31:07.441Z,13.07
2023-05-17T10:33:36.337Z,13.15
2023-05-17T10:36:06.780Z,13.33
2023-05-17T10:38:41.626Z,13.51
2023-05-17T10:41:15.383Z,13.70
2023-05-17T10:43:44.184Z,13.86
2023-05-17T10:46:16.969Z,13.89
2023-05-17T10:48:45.666Z,13.89
2023-05-17T10:51:14.029Z,13.86
2023-05-17T10:54:04.318Z,13.79
2023-05-17T10:56:33.909Z,13.74
2023-05-17T10:59:27.018Z,13.75
2023-05-17T11:02:01.088Z,13.75
2023-05-17T11:04:36.888Z,13.78
2023-05-17T11:07:22.388Z,13.76
2023-05-17T11:09:53.758Z,13.76
2023-05-17T11:12:40.729Z,13.79
2023-05-17T11:15:11.098Z,13.89
2023-05-17T11:17:47.004Z,13.99
2023-05-17T11:20:16.973Z,14.08
2023-05-17T11:22:59.132Z,14.07
2023-05-17T11:25:36.259Z,14.04
2023-05-17T11:28:24.954Z,14.05
2023-05-17T11:31:01.098Z,14.10
2023-05-17T11:33:40.554Z,14.21
2023-05-17T11:36:16.730Z,14.33
2023-05-17T11:38:46.565Z,14.38
2023-05-17T11:43:53.666Z,14.35
2023-05-17T11:46:23.260Z,14.26
2023-05-17T11:48:53.350Z,14.18
2023-05-17T11:51:24.938Z,14.05
2023-05-17T11:53:57.405Z,13.91
2023-05-17T11:56:39.475Z,13.83
2023-05-17T11:59:11.177Z,13.70
2023-05-17T12:01:44.572Z,13.55
2023-05-17T12:04:13.821Z,13.44
2023-05-17T12:06:42.807Z,13.35
2023-05-17T12:09:13.675Z,13.34
2023-05-17T12:11:42.772Z,13.43
2023-05-17T12:14:15.139Z,13.59
2023-05-17T12:16:45.057Z,13.76
2023-05-17T12:19:21.315Z,13.87
2023-05-17T12:21:50.007Z,13.95
2023-05-17T12:24:18.786Z,14.04
2023-05-17T12:26:47.879Z,14.07
2023-05-17T12:29:22.531Z,14.16
2023-05-17T12:31:53.058Z,14.27
2023-05-17T12:34:22.427Z,14.43
2023-05-17T12:36:51.625Z,14.57
2023-05-17T12:39:24.223Z,14.67
2023-05-17T12:41:53.417Z,14.67
2023-05-17T12:44:22.113Z,14.65
2023-05-17T12:46:57.956Z,14.72
2023-05-17T12:49:27.149Z,14.83
2023-05-17T12:51:55.507Z,14.97
2023-05-17T12:54:30.369Z,15.11
2023-05-17T12:56:58.726Z,15.22
2023-05-17T12:59:29.211Z,15.28
2023-05-17T13:01:58.352Z,15.40
2023-05-17T13:04:34.427Z,15.45
2023-05-17T13:07:05.044Z,15.53
2023-05-17T13:09:34.695Z,15.56
2023-05-17T13:12:07.411Z,15.58
2023-05-17T13:14:46.278Z,15.52
2023-05-17T13:17:35.130Z,15.36
2023-05-17T13:20:05.330Z,15.32
2023-05-17T13:22:34.919Z,15.30
2023-05-17T13:25:03.808Z,15.35
2023-05-17T13:27:31.990Z,15.44
2023-05-17T13:30:00.362Z,15.49
2023-05-17T13:32:29.677Z,15.48
2023-05-17T13:34:58.030Z,15.44
2023-05-17T13:37:26.405Z,15.43
2023-05-17T13:39:56.428Z,15.40
2023-05-17T13:42:24.843Z,15.36
2023-05-17T13:44:53.297Z,15.32
2023-05-17T13:47:21.696Z,15.34
2023-05-17T13:49:50.243Z,15.41
2023-05-17T13:52:18.920Z,15.47
2023-05-17T13:54:47.298Z,15.46
2023-05-17T13:57:15.574Z,15.43
2023-05-17T13:59:45.944Z,15.43
2023-05-17T14:02:14.587Z,15.46
2023-05-17T14:04:44.085Z,15.44
2023-05-17T14:07:12.875Z,15.43
2023-05-17T14:09:41.348Z,15.47
2023-05-17T14:12:09.730Z,15.48
2023-05-17T14:14:38.104Z,15.46
2023-05-17T14:17:06.583Z,15.36
2023-05-17T14:19:34.938Z,15.30
2023-05-17T14:22:03.442Z,15.23
2023-05-17T14:24:32.227Z,15.18
2023-05-17T14:27:02.756Z,15.14
2023-05-17T14:29:32.155Z,15.07
2023-05-17T14:32:00.327Z,15.05
2023-05-17T14:34:28.757Z,15.03
2023-05-17T14:36:57.365Z,15.01
2023-05-17T14:39:25.663Z,14.96
2023-05-17T14:41:54.002Z,14.92
2023-05-17T14:44:22.425Z,14.90
2023-05-17T14:46:50.799Z,14.92
2023-05-17T14:49:19.112Z,14.93
2023-05-17T14:51:47.548Z,14.91
2023-05-17T14:54:17.047Z,14.84
2023-05-17T14:56:45.744Z,14.79
2023-05-17T14:59:14.111Z,14.77
2023-05-17T15:01:42.588Z,14.78
2023-05-17T15:04:11.033Z,14.77
2023-05-17T15:06:39.446Z,14.75
2023-05-17T15:09:09.931Z,14.76
2023-05-17T15:11:38.259Z,14.77
2023-05-17T15:14:06.936Z,14.79
2023-05-17T15:16:35.253Z,14.81
2023-05-17T15:19:03.718Z,14.83
2023-05-17T15:21:32.270Z,14.86
2023-05-17T15:24:00.543Z,14.89
2023-05-17T15:26:28.924Z,14.90
2023-05-17T15:28:57.809Z,14.87
2023-05-17T15:31:28.650Z,14.81
2023-05-17T15:33:57.847Z,14.74
2023-05-17T15:36:26.529Z,14.66
2023-05-17T15:38:55.013Z,14.61
2023-05-17T15:41:29.782Z,14.58
2023-05-17T15:43:59.054Z,14.56
2023-05-17T15:46:27.922Z,14.55
2023-05-17T15:48:56.831Z,14.51
2023-05-17T15:51:25.200Z,14.48
2023-05-17T15:53:53.770Z,14.45
2023-05-17T15:56:23.462Z,14.41
2023-05-17T15:58:52.384Z,14.37
2023-05-17T16:01:20.846Z,14.32
2023-05-17T16:03:49.231Z,14.31
2023-05-17T16:06:17.716Z,14.28
2023-05-17T16:08:46.180Z,14.22
2023-05-17T16:11:14.458Z,14.16
2023-05-17T16:13:43.139Z,14.10
2023-05-17T16:16:13.666Z,14.04
2023-05-17T16:18:42.092Z,13.99
2023-05-17T16:21:10.624Z,13.95
2023-05-17T16:23:38.902Z,13.91
2023-05-17T16:26:07.491Z,13.88
2023-05-17T16:28:37.093Z,13.85
2023-05-17T16:31:08.130Z,13.82
2023-05-17T16:33:36.889Z,13.78
2023-05-17T16:36:05.909Z,13.75
2023-05-17T16:38:34.187Z,13.73
2023-05-17T16:41:03.585Z,13.69
2023-05-17T16:43:31.967Z,13.64
2023-05-17T16:46:00.551Z,13.61
2023-05-17T16:48:29.248Z,13.57
2023-05-17T16:50:59.716Z,13.54
2023-05-17T16:53:28.538Z,13.52
2023-05-17T16:55:57.021Z,13.49
2023-05-17T16:58:26.314Z,13.45
2023-05-17T17:00:54.606Z,13.43
2023-05-17T17:03:23.011Z,13.40
2023-05-17T17:05:51.555Z,13.35
2023-05-17T17:08:19.828Z,13.32
2023-05-17T17:10:47.997Z,13.29
2023-05-17T17:13:16.628Z,13.26
2023-05-17T17:15:45.079Z,13.23
2023-05-17T17:18:13.486Z,13.18
2023-05-17T17:20:41.807Z,13.14
2023-05-17T17:23:10.197Z,13.07
2023-05-17T17:25:38.782Z,13.02
2023-05-17T17:28:07.044Z,12.99
2023-05-17T17:30:35.420Z,12.93
2023-05-17T17:33:03.984Z,12.89
2023-05-17T17:35:32.382Z,12.83
2023-05-17T17:38:02.420Z,12.77
2023-05-17T17:40:30.941Z,12.70
2023-05-17T17:42:59.668Z,12.65
2023-05-17T17:45:27.837Z,12.60
2023-05-17T17:47:56.155Z,12.55
2023-05-17T17:50:24.703Z,12.50
2023-05-17T17:52:53.092Z,12.43
2023-05-17T17:55:21.346Z,12.35
2023-05-17T17:57:51.262Z,12.26
2023-05-17T18:00:20.046Z,12.20
2023-05-17T18:02:48.336Z,12.12
2023-05-17T18:05:16.611Z,12.01
2023-05-17T18:07:44.874Z,11.92
2023-05-17T18:10:13.249Z,11.82
2023-05-17T18:12:41.628Z,11.71
2023-05-17T18:15:11.595Z,11.59
2023-05-17T18:17:40.139Z,11.46
2023-05-17T18:20:09.062Z,11.33
2023-05-17T18:22:37.386Z,11.20
2023-05-17T18:25:06.393Z,11.06
2023-05-17T18:27:35.507Z,10.92
2023-05-17T18:30:04.672Z,10.77
2023-05-17T18:32:33.139Z,10.63
2023-05-17T18:35:01.527Z,10.50
2023-05-17T18:37:29.798Z,10.38
2023-05-17T18:40:00.019Z,10.25
2023-05-17T18:42:29.212Z,10.13
2023-05-17T18:44:57.487Z,10.02
2023-05-17T18:47:28.084Z,9.94
2023-05-17T18:49:56.490Z,9.87
2023-05-17T18:52:24.672Z,9.83
2023-05-17T18:54:52.836Z,9.76
2023-05-17T18:57:21.216Z,9.74
2023-05-17T18:59:49.342Z,9.71
2023-05-17T19:02:17.561Z,9.65
2023-05-17T19:04:45.939Z,9.56
2023-05-17T19:07:14.314Z,9.48
2023-05-17T19:09:42.796Z,9.40
2023-05-17T19:12:11.170Z,9.29
2023-05-17T19:14:40.476Z,9.21
2023-05-17T19:17:10.368Z,9.14
2023-05-17T19:19:38.980Z,9.09
2023-05-17T19:22:07.658Z,9.04
2023-05-17T19:24:35.975Z,9.02
2023-05-17T19:27:05.136Z,8.99
2023-05-17T19:29:33.391Z,8.97
2023-05-17T19:32:01.871Z,8.95
2023-05-17T19:34:30.200Z,8.92
2023-05-17T19:36:59.041Z,8.88
2023-05-17T19:39:27.430Z,8.87
2023-05-17T19:41:56.005Z,8.84
2023-05-17T19:44:24.175Z,8.79
2023-05-17T19:46:52.585Z,8.76
2023-05-17T19:49:21.247Z,8.74
2023-05-17T19:51:49.813Z,8.72
2023-05-17T19:54:18.093Z,8.68
2023-05-17T19:56:46.380Z,8.64
2023-05-17T19:59:14.741Z,8.60
2023-05-17T20:01:43.167Z,8.58
2023-05-17T20:04:11.722Z,8.54
2023-05-17T20:06:40.712Z,8.53
2023-05-17T20:09:08.966Z,8.50
2023-05-17T20:11:37.452Z,8.46
2023-05-17T20:14:05.821Z,8.43
2023-05-17T20:16:34.226Z,8.41
2023-05-17T20:19:02.706Z,8.40
2023-05-17T20:21:31.669Z,8.43
2023-05-17T20:24:04.137Z,8.48
2023-05-17T20:26:37.071Z,8.53
2023-05-17T20:29:09.724Z,8.54
2023-05-17T20:31:38.430Z,8.56
2023-05-17T20:34:06.777Z,8.57
2023-05-17T20:36:35.141Z,8.59
2023-05-17T20:39:03.718Z,8.60
2023-05-17T20:41:31.995Z,8.61
2023-05-17T20:44:00.370Z,8.61
2023-05-17T20:46:31.769Z,8.59
2023-05-17T20:49:01.325Z,8.57
2023-05-17T20:51:29.862Z,8.55
2023-05-17T20:53:58.279Z,8.53
2023-05-17T20:56:26.660Z,8.51
2023-05-17T20:58:55.036Z,8.52
2023-05-17T21:01:23.350Z,8.56
2023-05-17T21:03:51.813Z,8.61
2023-05-17T21:06:20.492Z,8.65
2023-05-17T21:08:48.749Z,8.70
2023-05-17T21:11:21.412Z,8.75
2023-05-17T21:13:50.808Z,8.77
2023-05-17T21:16:19.131Z,8.78
2023-05-17T21:18:47.552Z,8.80
2023-05-17T21:21:16.276Z,8.84
2023-05-17T21:23:44.854Z,8.86
2023-05-17T21:26:13.533Z,8.88
2023-05-17T21:28:41.706Z,8.91
2023-05-17T21:31:10.200Z,8.93
2023-05-17T21:33:38.476Z,8.96
2023-05-17T21:36:06.944Z,8.96
2023-05-17T21:38:36.135Z,8.96
2023-05-17T21:41:04.418Z,8.92
2023-05-17T21:43:32.691Z,8.90
2023-05-17T21:46:00.975Z,8.84
2023-05-17T21:48:29.341Z,8.76
2023-05-17T21:50:57.816Z,8.70
2023-05-17T21:53:26.293Z,8.62
2023-05-17T21:56:01.954Z,8.58
2023-05-17T21:58:32.318Z,8.55
2023-05-17T22:01:01.846Z,8.52
2023-05-17T22:03:30.206Z,8.48
2023-05-17T22:05:58.734Z,8.41
2023-05-17T22:08:27.245Z,8.33
2023-05-17T22:10:55.989Z,8.31
2023-05-17T22:13:27.038Z,8.29
2023-05-17T22:15:57.805Z,8.29
2023-05-17T22:18:27.360Z,8.25
2023-05-17T22:20:59.568Z,8.24
2023-05-17T22:23:28.429Z,8.21
2023-05-17T22:26:00.525Z,8.18
2023-05-17T22:28:29.086Z,8.14
2023-05-17T22:30:57.387Z,8.10
2023-05-17T22:33:27.571Z,8.03
2023-05-17T22:35:56.359Z,7.96
2023-05-17T22:38:24.629Z,7.90
2023-05-17T22:40:52.899Z,7.87
2023-05-17T22:43:26.198Z,7.84
2023-05-17T22:45:54.472Z,7.81
2023-05-17T22:48:22.747Z,7.80
2023-05-17T22:50:54.817Z,7.79
2023-05-17T22:53:22.986Z,7.79
2023-05-17T22:55:52.193Z,7.80
2023-05-17T22:58:20.760Z,7.81
2023-05-17T23:00:51.318Z,7.82
2023-05-17T23:03:20.075Z,7.83
2023-05-17T23:05:48.460Z,7.83
2023-05-17T23:08:16.834Z,7.82
2023-05-17T23:10:45.627Z,7.82
2023-05-17T23:13:14.196Z,7.81
2023-05-17T23:15:47.120Z,7.79
2023-05-17T23:18:16.293Z,7.77
2023-05-17T23:20:46.543Z,7.76
2023-05-17T23:23:15.755Z,7.73
2023-05-17T23:25:48.850Z,7.71
2023-05-17T23:28:18.800Z,7.69
2023-05-17T23:30:49.058Z,7.69
2023-05-17T23:33:19.183Z,7.69
2023-05-17T23:35:47.411Z,7.66
2023-05-17T23:38:15.883Z,7.64
2023-05-17T23:40:44.571Z,7.63
2023-05-17T23:43:12.870Z,7.62
2023-05-17T23:45:41.231Z,7.63
2023-05-17T23:48:10.035Z,7.65
2023-05-17T23:50:39.408Z,7.68
2023-05-17T23:53:10.026Z,7.69
2023-05-17T23:55:38.839Z,7.71
2023-05-17T23:58:07.315Z,7.70
